createdAt,value
2022-10-06T00:01:56.028Z,10.45
2022-10-06T00:06:58.827Z,10.43
2022-10-06T00:12:01.528Z,10.41
2022-10-06T00:17:04.818Z,10.38
2022-10-06T00:22:07.536Z,10.31
2022-10-06T00:27:10.232Z,10.26
2022-10-06T00:32:12.911Z,10.24
2022-10-06T00:37:15.630Z,10.21
2022-10-06T00:42:31.412Z,10.17
2022-10-06T00:47:34.174Z,10.13
2022-10-06T00:52:36.902Z,10.11
2022-10-06T00:57:41.362Z,10.06
2022-10-06T01:03:07.910Z,10.02
2022-10-06T01:08:10.750Z,9.99
2022-10-06T01:13:14.873Z,9.95
2022-10-06T01:18:20.385Z,9.90
2022-10-06T01:23:23.503Z,9.84
2022-10-06T01:28:26.722Z,9.80
2022-10-06T01:33:30.375Z,9.75
2022-10-06T01:38:33.536Z,9.69
2022-10-06T01:43:36.313Z,9.63
2022-10-06T01:48:38.983Z,9.61
2022-10-06T01:53:42.091Z,9.59
2022-10-06T01:58:44.760Z,9.59
2022-10-06T02:03:47.439Z,9.60
2022-10-06T02:08:50.288Z,9.59
2022-10-06T02:13:53.605Z,9.58
2022-10-06T02:18:56.299Z,9.57
2022-10-06T02:23:59.174Z,9.53
2022-10-06T02:29:01.823Z,9.46
2022-10-06T02:34:04.948Z,9.45
2022-10-06T02:39:07.813Z,9.43
2022-10-06T02:44:10.561Z,9.43
2022-10-06T02:49:13.733Z,9.43
2022-10-06T02:54:16.624Z,9.42
2022-10-06T02:59:19.307Z,9.42
2022-10-06T03:04:22.027Z,9.41
2022-10-06T03:09:25.355Z,9.38
2022-10-06T03:14:28.166Z,9.40
2022-10-06T03:19:30.835Z,9.42
2022-10-06T03:24:33.857Z,9.43
2022-10-06T03:29:36.523Z,9.42
2022-10-06T03:34:39.221Z,9.38
2022-10-06T03:39:42.120Z,9.33
2022-10-06T03:44:44.875Z,9.32
2022-10-06T03:49:47.867Z,9.31
2022-10-06T03:54:50.547Z,9.30
2022-10-06T03:59:53.282Z,9.27
2022-10-06T04:04:56.552Z,9.26
2022-10-06T04:09:59.155Z,9.25
2022-10-06T04:15:02.486Z,9.24
2022-10-06T04:20:06.010Z,9.21
2022-10-06T04:25:08.886Z,9.23
2022-10-06T04:30:12.751Z,9.24
2022-10-06T04:35:15.632Z,9.25
2022-10-06T04:40:18.542Z,9.29
2022-10-06T04:45:21.237Z,9.41
2022-10-06T04:50:24.147Z,9.55
2022-10-06T04:55:26.786Z,9.70
2022-10-06T05:00:29.531Z,9.83
2022-10-06T05:05:32.196Z,9.95
2022-10-06T05:10:34.864Z,10.07
2022-10-06T05:15:37.877Z,10.15
2022-10-06T05:20:40.571Z,10.19
2022-10-06T05:25:51.741Z,10.28
2022-10-06T05:30:55.137Z,10.41
2022-10-06T05:36:00.750Z,10.54
2022-10-06T05:41:03.342Z,10.64
2022-10-06T05:46:11.057Z,10.71
2022-10-06T05:51:15.052Z,10.79
2022-10-06T05:56:20.524Z,10.88
2022-10-06T06:01:37.051Z,10.96
2022-10-06T06:06:46.255Z,11.02
2022-10-06T06:11:51.036Z,11.13
2022-10-06T06:16:54.356Z,11.29
2022-10-06T06:21:57.440Z,11.45
2022-10-06T06:27:00.305Z,11.66
2022-10-06T06:32:06.005Z,11.82
2022-10-06T06:37:14.979Z,11.95
2022-10-06T06:42:19.206Z,11.98
2022-10-06T06:47:25.976Z,11.95
2022-10-06T06:52:31.135Z,11.98
2022-10-06T06:57:34.363Z,12.07
2022-10-06T07:02:41.867Z,12.20
2022-10-06T07:07:48.627Z,12.32
2022-10-06T07:24:20.873Z,12.85
2022-10-06T07:29:25.258Z,13.03
2022-10-06T07:40:18.567Z,13.37
2022-10-06T07:45:39.041Z,13.58
2022-10-06T07:50:43.816Z,13.86
2022-10-06T07:55:47.891Z,14.20
2022-10-06T08:00:52.908Z,14.31
2022-10-06T08:06:03.392Z,14.35
2022-10-06T08:11:08.179Z,14.43
2022-10-06T08:16:22.996Z,14.55
2022-10-06T08:21:29.090Z,14.70
2022-10-06T08:26:33.279Z,14.95
2022-10-06T08:31:36.086Z,15.34
2022-10-06T08:36:38.973Z,15.78
2022-10-06T08:41:51.210Z,16.07
2022-10-06T08:47:02.578Z,16.23
2022-10-06T08:52:27.990Z,16.31
2022-10-06T08:58:29.461Z,16.45
2022-10-06T09:03:45.909Z,16.76
2022-10-06T09:09:35.694Z,16.85
2022-10-06T09:15:12.346Z,16.96
2022-10-06T09:20:38.397Z,17.08
2022-10-06T09:25:42.026Z,17.28
2022-10-06T09:30:53.151Z,17.22
2022-10-06T09:36:08.316Z,17.16
2022-10-06T09:41:30.077Z,17.19
2022-10-06T09:46:43.949Z,17.15
2022-10-06T09:52:07.695Z,17.21
2022-10-06T09:57:28.929Z,17.51
2022-10-06T10:02:39.875Z,17.68
2022-10-06T10:08:07.284Z,17.52
2022-10-06T10:13:43.915Z,17.11
2022-10-06T10:25:25.649Z,16.59
2022-10-06T10:30:39.573Z,16.79
2022-10-06T10:35:48.582Z,16.86
2022-10-06T10:41:11.929Z,16.93
2022-10-06T10:46:34.856Z,17.12
2022-10-06T10:51:52.967Z,17.35
2022-10-06T10:56:55.823Z,17.19
2022-10-06T11:02:14.487Z,17.03
2022-10-06T11:13:25.218Z,16.54
2022-10-06T11:18:49.648Z,16.26
2022-10-06T11:24:21.373Z,16.30
2022-10-06T11:29:43.199Z,16.47
2022-10-06T11:34:51.572Z,16.93
2022-10-06T11:40:17.345Z,17.44
2022-10-06T11:45:32.265Z,17.79
2022-10-06T11:50:43.306Z,17.81
2022-10-06T11:55:46.093Z,17.43
2022-10-06T12:00:49.769Z,17.06
2022-10-06T12:05:57.063Z,17.19
2022-10-06T12:11:02.384Z,17.44
2022-10-06T12:22:16.982Z,17.59
2022-10-06T12:27:30.271Z,17.50
2022-10-06T12:32:53.061Z,17.32
2022-10-06T12:38:05.096Z,17.24
2022-10-06T12:43:15.311Z,17.20
2022-10-06T12:48:26.967Z,17.23
2022-10-06T12:53:37.005Z,17.23
2022-10-06T12:58:39.727Z,17.26
2022-10-06T13:03:47.257Z,17.30
2022-10-06T13:09:15.049Z,17.35
2022-10-06T13:14:17.721Z,17.44
2022-10-06T13:19:25.891Z,17.53
2022-10-06T13:24:31.064Z,17.67
2022-10-06T13:29:33.734Z,17.83
2022-10-06T13:34:43.283Z,18.01
2022-10-06T13:39:46.725Z,18.04
2022-10-06T13:44:59.567Z,17.85
2022-10-06T13:50:08.372Z,17.63
2022-10-06T13:55:18.666Z,17.41
2022-10-06T14:00:25.740Z,17.27
2022-10-06T14:05:40.225Z,17.22
2022-10-06T14:10:49.750Z,17.18
2022-10-06T14:16:02.125Z,17.24
2022-10-06T14:21:36.791Z,17.35
2022-10-06T14:26:39.932Z,17.46
2022-10-06T14:31:43.702Z,17.42
2022-10-06T14:36:55.417Z,17.31
2022-10-06T14:41:58.865Z,17.64
2022-10-06T14:47:01.564Z,18.14
2022-10-06T14:52:05.676Z,18.27
2022-10-06T14:57:09.807Z,18.26
2022-10-06T15:02:12.643Z,18.35
2022-10-06T15:07:34.032Z,18.35
2022-10-06T15:12:36.932Z,18.34
2022-10-06T15:17:39.605Z,18.26
2022-10-06T15:22:42.288Z,18.18
2022-10-06T15:28:03.521Z,17.95
2022-10-06T15:33:06.568Z,17.22
2022-10-06T15:38:09.336Z,16.89
2022-10-06T15:43:14.202Z,16.55
2022-10-06T15:48:20.330Z,16.07
2022-10-06T15:53:23.151Z,15.31
2022-10-06T15:58:25.769Z,14.67
2022-10-06T16:03:41.278Z,14.15
2022-10-06T16:08:44.405Z,13.69
2022-10-06T16:13:47.099Z,13.28
2022-10-06T16:18:49.908Z,12.87
2022-10-06T16:23:53.732Z,12.47
2022-10-06T16:28:56.559Z,12.11
2022-10-06T16:33:59.406Z,11.78
2022-10-06T16:39:03.318Z,11.51
2022-10-06T16:44:06.041Z,11.30
2022-10-06T16:49:09.758Z,11.13
2022-10-06T16:54:14.782Z,10.94
2022-10-06T16:59:20.366Z,10.72
2022-10-06T17:04:26.066Z,10.47
2022-10-06T17:09:29.810Z,10.21
2022-10-06T17:14:34.591Z,9.95
2022-10-06T17:19:37.344Z,9.78
2022-10-06T17:24:40.028Z,9.69
2022-10-06T17:29:44.788Z,9.63
2022-10-06T17:34:47.898Z,9.52
2022-10-06T17:39:50.529Z,9.40
2022-10-06T17:44:53.869Z,9.28
2022-10-06T17:49:57.136Z,9.19
2022-10-06T17:54:59.809Z,9.07
2022-10-06T18:00:02.622Z,8.94
2022-10-06T18:05:07.098Z,8.82
2022-10-06T18:10:28.363Z,8.75
2022-10-06T18:15:36.342Z,8.68
2022-10-06T18:20:41.306Z,8.58
2022-10-06T18:25:44.489Z,8.52
2022-10-06T18:30:50.610Z,8.50
2022-10-06T18:36:14.942Z,8.48
2022-10-06T18:41:19.654Z,8.46
2022-10-06T18:46:41.904Z,8.46
2022-10-06T18:51:47.011Z,8.38
2022-10-06T18:56:53.489Z,8.30
2022-10-06T19:01:56.800Z,8.24
2022-10-06T19:06:59.653Z,8.19
2022-10-06T19:12:02.344Z,8.10
2022-10-06T19:17:14.975Z,8.05
2022-10-06T19:22:20.135Z,8.03
2022-10-06T19:27:25.109Z,8.00
2022-10-06T19:32:32.352Z,7.94
2022-10-06T19:37:35.045Z,7.90
2022-10-06T19:42:51.231Z,7.80
2022-10-06T19:47:54.822Z,7.65
2022-10-06T19:52:57.553Z,7.55
2022-10-06T19:58:00.538Z,7.49
2022-10-06T20:03:07.532Z,7.45
2022-10-06T20:08:10.223Z,7.41
2022-10-06T20:13:12.897Z,7.34
2022-10-06T20:18:15.926Z,7.32
2022-10-06T20:23:18.659Z,7.30
2022-10-06T20:28:21.620Z,7.24
2022-10-06T20:33:24.410Z,7.20
2022-10-06T20:38:47.056Z,7.20
2022-10-06T20:43:50.832Z,7.16
2022-10-06T20:48:53.665Z,7.07
2022-10-06T20:53:56.357Z,7.01
2022-10-06T20:59:08.816Z,6.98
2022-10-06T21:04:12.150Z,6.98
2022-10-06T21:09:16.784Z,6.99
2022-10-06T21:14:20.107Z,6.99
2022-10-06T21:19:22.916Z,6.91
2022-10-06T21:24:25.711Z,6.89
2022-10-06T21:29:28.483Z,6.89
2022-10-06T21:34:31.881Z,6.85
2022-10-06T21:39:35.038Z,6.85
2022-10-06T21:44:37.748Z,6.87
2022-10-06T21:49:40.499Z,6.84
2022-10-06T21:54:43.256Z,6.80
2022-10-06T21:59:47.062Z,6.79
2022-10-06T22:04:49.833Z,6.80
2022-10-06T22:09:52.584Z,6.78
2022-10-06T22:14:58.849Z,6.75
2022-10-06T22:20:01.616Z,6.74
2022-10-06T22:25:05.282Z,6.70
2022-10-06T22:30:09.096Z,6.66
2022-10-06T22:35:11.985Z,6.67
2022-10-06T22:40:14.813Z,6.66
2022-10-06T22:45:17.693Z,6.63
2022-10-06T22:50:20.441Z,6.58
2022-10-06T22:55:23.823Z,6.49
2022-10-06T23:00:27.863Z,6.46
2022-10-06T23:05:30.949Z,6.46
2022-10-06T23:10:37.127Z,6.43
2022-10-06T23:15:40.032Z,6.34
2022-10-06T23:20:42.839Z,6.24
2022-10-06T23:25:45.739Z,6.18
2022-10-06T23:30:48.537Z,6.12
2022-10-06T23:35:58.485Z,6.08
2022-10-06T23:41:01.304Z,6.04
2022-10-06T23:46:04.244Z,6.00
2022-10-06T23:51:13.040Z,5.99
2022-10-06T23:56:16.264Z,6.00
